createdAt,value
2019-04-10T00:00:04.310Z,76.91
2019-04-10T00:10:03.456Z,77.89
2019-04-10T00:20:04.273Z,79.15
2019-04-10T00:30:05.366Z,80.70
2019-04-10T00:40:03.742Z,82.55
2019-04-10T00:50:04.129Z,83.71
2019-04-10T01:00:04.790Z,84.00
2019-04-10T01:10:03.903Z,84.07
2019-04-10T01:20:02.798Z,84.05
2019-04-10T01:30:04.268Z,84.05
2019-04-10T01:40:04.316Z,83.18
2019-04-10T01:50:04.287Z,82.30
2019-04-10T02:00:05.009Z,81.41
2019-04-10T02:10:04.063Z,80.09
2019-04-10T02:20:03.422Z,79.93
2019-04-10T02:30:07.593Z,79.95
2019-04-10T02:40:07.167Z,80.93
2019-04-10T02:50:05.993Z,80.09
2019-04-10T03:00:05.818Z,81.61
2019-04-10T03:10:25.093Z,81.75
2019-04-10T03:20:03.241Z,80.70
2019-04-10T03:30:07.422Z,80.30
2019-04-10T03:40:03.330Z,80.45
2019-04-10T03:50:03.085Z,79.88
2019-04-10T04:00:04.171Z,80.27
2019-04-10T04:10:04.670Z,80.48
2019-04-10T04:20:03.046Z,80.05
2019-04-10T04:30:04.217Z,80.12
2019-04-10T04:40:03.584Z,81.50
2019-04-10T04:50:04.018Z,82.73
2019-04-10T05:00:03.709Z,82.70
2019-04-10T05:10:04.702Z,81.64
2019-04-10T05:20:03.351Z,81.33
2019-04-10T05:30:04.584Z,79.62
2019-04-10T05:40:03.719Z,79.28
2019-04-10T05:50:04.403Z,79.46
2019-04-10T06:00:04.706Z,77.93
2019-04-10T06:10:09.991Z,77.77
2019-04-10T06:20:02.812Z,78.02
2019-04-10T06:30:04.332Z,77.35
2019-04-10T06:40:18.577Z,79.16
2019-04-10T06:50:02.973Z,78.46
2019-04-10T07:00:04.570Z,81.04
2019-04-10T07:10:02.828Z,81.91
2019-04-10T07:20:02.731Z,81.56
2019-04-10T07:30:04.052Z,79.66
2019-04-10T07:40:05.944Z,79.12
2019-04-10T07:50:06.950Z,77.95
2019-04-10T08:00:04.087Z,78.66
2019-04-10T08:10:03.966Z,77.70
2019-04-10T08:20:04.155Z,79.04
2019-04-10T08:30:05.323Z,77.61
2019-04-10T08:40:03.542Z,75.42
2019-04-10T08:50:03.976Z,75.00
2019-04-10T09:00:04.526Z,73.13
2019-04-10T09:10:04.229Z,74.68
2019-04-10T09:20:03.035Z,72.05
2019-04-10T09:30:04.304Z,70.86
2019-04-10T09:40:04.004Z,70.76
2019-04-10T09:50:02.781Z,70.16
2019-04-10T10:00:03.716Z,69.09
2019-04-10T10:10:02.535Z,68.88
2019-04-10T10:20:04.201Z,69.28
2019-04-10T10:30:04.073Z,69.56
2019-04-10T10:40:03.861Z,72.66
2019-04-10T10:50:02.696Z,73.48
2019-04-10T11:00:04.515Z,71.86
2019-04-10T11:10:04.238Z,72.47
2019-04-10T11:20:04.181Z,72.39
2019-04-10T11:30:05.720Z,72.78
2019-04-10T11:40:08.442Z,73.16
2019-04-10T11:50:10.204Z,74.22
2019-04-10T12:00:11.267Z,70.66
2019-04-10T12:20:03.268Z,68.89
2019-04-10T12:30:03.425Z,69.09
2019-04-10T12:40:03.870Z,69.24
2019-04-10T12:50:03.751Z,66.58
2019-04-10T13:00:06.533Z,65.89
2019-04-10T13:10:04.447Z,63.57
2019-04-10T13:20:03.279Z,63.25
2019-04-10T13:30:03.411Z,63.37
2019-04-10T13:40:03.868Z,62.63
2019-04-10T13:50:03.342Z,62.00
2019-04-10T14:00:04.178Z,62.00
2019-04-10T14:10:03.345Z,62.35
2019-04-10T14:20:04.674Z,61.70
2019-04-10T14:30:05.003Z,63.49
2019-04-10T14:40:06.761Z,63.04
2019-04-10T14:50:02.689Z,63.09
2019-04-10T15:00:04.301Z,63.21
2019-04-10T15:10:03.195Z,63.38
2019-04-10T15:20:03.198Z,64.30
2019-04-10T15:30:04.807Z,65.57
2019-04-10T15:40:20.715Z,66.71
2019-04-10T15:50:04.534Z,67.91
2019-04-10T16:00:04.801Z,68.49
2019-04-10T16:10:06.305Z,67.95
2019-04-10T16:20:02.634Z,68.06
2019-04-10T16:30:04.604Z,67.92
2019-04-10T16:40:07.347Z,68.93
2019-04-10T16:50:03.820Z,70.02
2019-04-10T17:00:04.717Z,68.90
2019-04-10T17:10:19.326Z,69.24
2019-04-10T17:20:04.132Z,69.45
2019-04-10T17:30:05.264Z,71.48
2019-04-10T17:40:04.393Z,76.07
2019-04-10T17:50:04.144Z,76.94
2019-04-10T18:00:05.004Z,78.79
2019-04-10T18:10:04.414Z,77.29
2019-04-10T18:20:03.353Z,74.64
2019-04-10T18:30:04.356Z,74.06
2019-04-10T18:40:03.718Z,75.81
2019-04-10T18:50:04.325Z,76.11
2019-04-10T19:00:03.329Z,79.16
2019-04-10T19:10:04.649Z,79.67
2019-04-10T19:20:04.063Z,79.05
2019-04-10T19:30:04.422Z,80.00
2019-04-10T19:40:05.119Z,82.10
2019-04-10T19:50:03.894Z,83.17
2019-04-10T20:00:04.583Z,83.33
2019-04-10T20:10:05.315Z,84.84
2019-04-10T20:20:03.353Z,85.19
2019-04-10T20:30:04.301Z,85.94
2019-04-10T20:40:03.901Z,86.57
2019-04-10T20:50:08.330Z,86.50
2019-04-10T21:00:05.660Z,86.42
2019-04-10T21:10:04.775Z,86.12
2019-04-10T21:20:03.867Z,86.24
2019-04-10T21:30:04.570Z,86.45
2019-04-10T21:40:03.174Z,86.23
2019-04-10T21:50:03.087Z,86.26
2019-04-10T22:00:04.218Z,85.84
2019-04-10T22:10:03.954Z,86.50
2019-04-10T22:20:03.765Z,86.58
2019-04-10T22:30:04.854Z,86.35
2019-04-10T22:40:02.959Z,86.70
2019-04-10T22:50:03.338Z,87.40
2019-04-10T23:00:03.939Z,87.42
2019-04-10T23:10:04.448Z,86.58
2019-04-10T23:20:03.397Z,87.27
2019-04-10T23:30:05.041Z,87.83
2019-04-10T23:40:04.860Z,88.29
2019-04-10T23:50:03.322Z,88.83
